createdAt,value
2018-09-02T00:01:50.867Z,8.65
2018-09-02T00:04:19.423Z,9.20
2018-09-02T00:06:48.013Z,8.35
2018-09-02T00:09:16.571Z,9.60
2018-09-02T00:11:45.135Z,8.55
2018-09-02T00:14:13.682Z,9.50
2018-09-02T00:16:42.625Z,11.28
2018-09-02T00:19:11.202Z,8.18
2018-09-02T00:21:39.703Z,10.00
2018-09-02T00:24:08.239Z,8.90
2018-09-02T00:26:36.851Z,8.90
2018-09-02T00:29:05.462Z,10.68
2018-09-02T00:31:33.965Z,9.08
2018-09-02T00:34:02.541Z,12.28
2018-09-02T00:36:31.137Z,10.00
2018-09-02T00:38:59.661Z,10.40
2018-09-02T00:41:28.155Z,9.85
2018-09-02T00:43:56.677Z,10.82
2018-09-02T00:46:25.213Z,12.20
2018-09-02T00:48:53.859Z,9.95
2018-09-02T00:51:22.566Z,11.55
2018-09-02T00:53:51.093Z,11.57
2018-09-02T00:56:19.677Z,9.85
2018-09-02T00:58:48.221Z,9.80
2018-09-02T01:01:16.807Z,11.90
2018-09-02T01:03:45.336Z,11.10
2018-09-02T01:06:13.873Z,11.78
2018-09-02T01:08:42.405Z,15.32
2018-09-02T01:11:10.953Z,11.08
2018-09-02T01:13:39.465Z,11.70
2018-09-02T01:16:07.951Z,12.05
2018-09-02T01:18:36.521Z,17.23
2018-09-02T01:21:05.095Z,14.80
2018-09-02T01:23:33.649Z,12.43
2018-09-02T01:26:02.242Z,11.75
2018-09-02T01:28:30.857Z,13.15
2018-09-02T01:30:59.386Z,14.10
2018-09-02T01:33:27.922Z,12.53
2018-09-02T01:35:56.461Z,13.03
2018-09-02T01:38:25.094Z,13.30
2018-09-02T01:40:53.626Z,14.28
2018-09-02T01:43:22.153Z,13.62
2018-09-02T01:45:50.689Z,13.62
2018-09-02T01:48:19.217Z,14.25
2018-09-02T01:50:47.758Z,13.78
2018-09-02T01:53:16.276Z,14.75
2018-09-02T01:55:44.825Z,16.37
2018-09-02T01:58:13.362Z,15.80
2018-09-02T02:00:41.900Z,17.52
2018-09-02T02:03:10.473Z,14.90
2018-09-02T02:05:39.411Z,14.73
2018-09-02T02:08:08.397Z,17.55
2018-09-02T02:10:36.944Z,15.35
2018-09-02T02:13:05.455Z,16.87
2018-09-02T02:15:33.984Z,20.35
2018-09-02T02:18:02.493Z,17.32
2018-09-02T02:20:31.058Z,16.87
2018-09-02T02:22:59.564Z,17.65
2018-09-02T02:25:28.190Z,20.05
2018-09-02T02:27:56.687Z,16.70
2018-09-02T02:30:31.706Z,20.00
2018-09-02T02:33:00.323Z,19.35
2018-09-02T02:35:28.970Z,17.57
2018-09-02T02:37:57.544Z,19.25
2018-09-02T02:40:26.048Z,20.68
2018-09-02T02:42:54.619Z,23.05
2018-09-02T02:45:23.212Z,17.80
2018-09-02T02:47:51.749Z,20.77
2018-09-02T02:50:20.256Z,18.27
2018-09-02T02:53:08.167Z,22.35
2018-09-02T02:55:36.774Z,21.73
2018-09-02T02:58:05.496Z,20.15
2018-09-02T03:00:34.067Z,23.10
2018-09-02T03:03:02.685Z,21.57
2018-09-02T03:05:31.291Z,23.47
2018-09-02T03:07:59.894Z,23.73
2018-09-02T03:10:28.502Z,27.80
2018-09-02T03:12:57.036Z,23.73
2018-09-02T03:15:25.536Z,29.25
2018-09-02T03:17:54.062Z,25.97
2018-09-02T03:20:22.577Z,27.62
2018-09-02T03:22:51.130Z,25.43
2018-09-02T03:25:19.721Z,26.97
2018-09-02T03:27:48.210Z,27.02
2018-09-02T03:30:16.751Z,33.05
2018-09-02T03:32:45.309Z,33.67
2018-09-02T03:35:13.830Z,32.05
2018-09-02T03:37:42.323Z,26.82
2018-09-02T03:40:10.904Z,26.00
2018-09-02T03:42:39.454Z,29.23
2018-09-02T03:45:07.962Z,24.32
2018-09-02T03:47:36.592Z,28.27
2018-09-02T03:50:05.253Z,26.75
2018-09-02T03:52:33.758Z,26.35
2018-09-02T03:55:02.360Z,22.62
2018-09-02T03:57:30.884Z,23.05
2018-09-02T03:59:59.456Z,21.17
2018-09-02T04:02:27.964Z,21.82
2018-09-02T04:04:56.563Z,21.70
2018-09-02T04:07:25.098Z,24.55
2018-09-02T04:09:53.671Z,19.92
2018-09-02T04:12:22.233Z,21.85
2018-09-02T04:14:50.786Z,19.27
2018-09-02T04:17:19.381Z,19.40
2018-09-02T04:19:48.595Z,20.62
2018-09-02T04:22:17.128Z,17.23
2018-09-02T04:24:45.695Z,19.87
2018-09-02T04:27:14.269Z,19.57
2018-09-02T04:29:42.819Z,20.45
2018-09-02T04:32:11.423Z,19.55
2018-09-02T04:34:40.014Z,25.65
2018-09-02T04:37:08.557Z,20.70
2018-09-02T04:39:37.090Z,21.75
2018-09-02T04:42:05.823Z,22.37
2018-09-02T04:44:34.337Z,23.87
2018-09-02T04:47:02.818Z,22.60
2018-09-02T04:49:31.337Z,26.60
2018-09-02T04:51:59.875Z,24.40
2018-09-02T04:54:28.444Z,22.73
2018-09-02T04:56:56.950Z,24.10
2018-09-02T04:59:25.514Z,20.65
2018-09-02T05:01:54.132Z,21.40
2018-09-02T05:04:22.705Z,23.47
2018-09-02T05:06:51.237Z,24.40
2018-09-02T05:09:19.808Z,21.45
2018-09-02T05:11:48.389Z,20.85
2018-09-02T05:14:17.022Z,21.65
2018-09-02T05:16:45.587Z,20.65
2018-09-02T05:19:14.202Z,21.93
2018-09-02T05:21:42.750Z,20.92
2018-09-02T05:24:11.290Z,20.48
2018-09-02T05:26:39.808Z,19.20
2018-09-02T05:29:08.380Z,20.15
2018-09-02T05:31:36.875Z,19.02
2018-09-02T05:34:05.492Z,19.52
2018-09-02T05:36:34.029Z,22.07
2018-09-02T05:39:02.627Z,20.50
2018-09-02T05:41:31.206Z,18.92
2018-09-02T05:43:59.817Z,20.85
2018-09-02T05:46:28.392Z,19.02
2018-09-02T05:48:56.913Z,18.57
2018-09-02T05:51:25.468Z,20.12
2018-09-02T05:53:54.031Z,18.60
2018-09-02T05:56:22.543Z,18.60
2018-09-02T05:58:51.227Z,17.40
2018-09-02T06:01:19.883Z,17.70
2018-09-02T06:03:48.463Z,16.48
2018-09-02T06:06:17.071Z,15.50
2018-09-02T06:08:45.603Z,15.70
2018-09-02T06:11:14.219Z,15.58
2018-09-02T06:13:42.811Z,17.30
2018-09-02T06:16:11.354Z,14.98
2018-09-02T06:18:39.976Z,14.95
2018-09-02T06:21:08.574Z,14.70
2018-09-02T06:23:37.272Z,15.98
2018-09-02T06:26:05.810Z,15.98
2018-09-02T06:28:35.764Z,15.93
2018-09-02T06:31:04.291Z,14.73
2018-09-02T06:33:32.872Z,13.78
2018-09-02T06:36:01.479Z,14.23
2018-09-02T06:38:30.013Z,12.90
2018-09-02T06:40:58.569Z,15.25
2018-09-02T06:43:27.122Z,13.25
2018-09-02T06:45:55.708Z,10.95
2018-09-02T06:48:24.287Z,11.68
2018-09-02T06:50:52.822Z,10.30
2018-09-02T06:53:22.365Z,10.75
2018-09-02T06:55:50.896Z,10.53
2018-09-02T06:58:19.535Z,10.32
2018-09-02T07:00:48.154Z,10.20
2018-09-02T07:03:16.839Z,11.03
2018-09-02T07:05:45.323Z,8.63
2018-09-02T07:08:14.009Z,10.78
2018-09-02T07:10:43.226Z,8.80
2018-09-02T07:13:12.115Z,10.32
2018-09-02T07:15:40.685Z,7.75
2018-09-02T07:18:09.243Z,7.90
2018-09-02T07:20:37.799Z,10.08
2018-09-02T07:23:06.650Z,9.38
2018-09-02T07:25:35.505Z,6.95
2018-09-02T07:28:04.020Z,7.00
2018-09-02T07:30:33.213Z,8.58
2018-09-02T07:33:01.916Z,8.30
2018-09-02T07:35:30.536Z,7.25
2018-09-02T07:37:59.441Z,7.15
2018-09-02T07:40:27.957Z,6.08
2018-09-02T07:42:56.523Z,7.60
2018-09-02T07:45:25.064Z,5.62
2018-09-02T07:47:53.647Z,5.37
2018-09-02T07:50:22.270Z,5.87
2018-09-02T07:52:50.825Z,5.72
2018-09-02T07:55:19.357Z,8.53
2018-09-02T07:57:47.917Z,4.50
2018-09-02T08:00:16.479Z,5.20
2018-09-02T08:02:45.046Z,5.37
2018-09-02T08:05:13.564Z,5.10
2018-09-02T08:07:42.090Z,4.55
2018-09-02T08:10:10.806Z,6.22
2018-09-02T08:12:39.450Z,4.97
2018-09-02T08:15:08.084Z,4.78
2018-09-02T08:17:36.632Z,5.35
2018-09-02T08:20:05.541Z,4.58
2018-09-02T08:22:35.145Z,6.12
2018-09-02T08:25:03.742Z,4.20
2018-09-02T08:27:32.250Z,4.60
2018-09-02T08:30:00.790Z,5.37
2018-09-02T08:32:29.432Z,5.62
2018-09-02T08:34:57.967Z,4.05
2018-09-02T08:37:26.606Z,5.33
2018-09-02T08:39:55.235Z,5.72
2018-09-02T08:42:23.791Z,3.50
2018-09-02T08:44:52.370Z,4.22
2018-09-02T08:47:20.938Z,4.05
2018-09-02T08:49:49.502Z,3.42
2018-09-02T08:52:18.024Z,5.28
2018-09-02T08:54:46.582Z,5.45
2018-09-02T08:57:15.114Z,2.85
2018-09-02T08:59:43.642Z,3.58
2018-09-02T09:02:12.164Z,4.10
2018-09-02T09:04:40.811Z,3.25
2018-09-02T09:07:09.384Z,3.50
2018-09-02T09:09:37.893Z,3.52
2018-09-02T09:12:06.405Z,4.92
2018-09-02T09:14:34.974Z,2.70
2018-09-02T09:17:03.684Z,2.37
2018-09-02T09:19:32.196Z,2.98
2018-09-02T09:22:00.758Z,6.45
2018-09-02T09:24:29.365Z,2.77
2018-09-02T09:26:57.912Z,3.70
2018-09-02T09:29:26.505Z,3.58
2018-09-02T09:31:55.023Z,5.60
2018-09-02T09:34:23.551Z,3.47
2018-09-02T09:36:52.108Z,4.08
2018-09-02T09:39:20.634Z,6.53
2018-09-02T09:41:49.174Z,2.30
2018-09-02T09:44:17.687Z,4.85
2018-09-02T09:46:46.261Z,3.37
2018-09-02T09:49:14.924Z,2.75
2018-09-02T09:51:43.470Z,2.70
2018-09-02T09:54:11.976Z,4.37
2018-09-02T09:56:40.499Z,5.95
2018-09-02T09:59:09.044Z,2.90
2018-09-02T10:01:37.664Z,2.72
2018-09-02T10:04:06.258Z,3.27
2018-09-02T10:06:34.886Z,3.47
2018-09-02T10:09:04.022Z,4.15
2018-09-02T10:11:32.642Z,3.62
2018-09-02T10:14:01.179Z,3.27
2018-09-02T10:16:29.744Z,4.10
2018-09-02T10:18:58.310Z,4.35
2018-09-02T10:21:26.833Z,4.53
2018-09-02T10:23:55.394Z,4.58
2018-09-02T10:26:23.912Z,4.37
2018-09-02T10:28:52.518Z,5.37
2018-09-02T10:31:21.070Z,3.65
2018-09-02T10:33:49.667Z,3.35
2018-09-02T10:36:18.384Z,4.87
2018-09-02T10:38:47.512Z,4.80
2018-09-02T10:41:16.244Z,4.15
2018-09-02T10:43:44.769Z,5.67
2018-09-02T10:46:13.293Z,3.40
2018-09-02T10:48:41.830Z,3.47
2018-09-02T10:51:10.394Z,3.22
2018-09-02T10:53:38.960Z,3.20
2018-09-02T10:56:07.546Z,2.75
2018-09-02T10:58:36.123Z,6.25
2018-09-02T11:01:04.662Z,4.30
2018-09-02T11:03:33.185Z,3.62
2018-09-02T11:06:01.727Z,2.90
2018-09-02T11:08:30.332Z,4.30
2018-09-02T11:10:59.306Z,3.98
2018-09-02T11:13:28.032Z,2.95
2018-09-02T11:15:56.497Z,3.85
2018-09-02T11:18:25.068Z,3.45
2018-09-02T11:20:53.626Z,2.42
2018-09-02T11:23:22.190Z,5.47
2018-09-02T11:25:50.846Z,4.35
2018-09-02T11:28:19.359Z,2.50
2018-09-02T11:30:47.926Z,4.15
2018-09-02T11:33:16.527Z,2.87
2018-09-02T11:35:45.097Z,4.53
2018-09-02T11:38:13.632Z,4.05
2018-09-02T11:40:42.191Z,3.87
2018-09-02T11:43:10.758Z,9.68
2018-09-02T11:45:39.389Z,3.70
2018-09-02T11:48:07.921Z,27.58
2018-09-02T11:50:36.424Z,5.10
2018-09-02T11:53:05.099Z,2.85
2018-09-02T11:55:33.624Z,2.45
2018-09-02T11:58:02.195Z,3.40
2018-09-02T12:00:30.791Z,3.47
2018-09-02T12:02:59.392Z,4.78
2018-09-02T12:05:28.061Z,3.30
2018-09-02T12:07:56.681Z,2.85
2018-09-02T12:10:25.237Z,3.80
2018-09-02T12:12:53.832Z,3.77
2018-09-02T12:15:22.423Z,3.42
2018-09-02T12:17:51.004Z,4.40
2018-09-02T12:20:19.538Z,2.92
2018-09-02T12:22:48.114Z,2.98
2018-09-02T12:25:16.673Z,3.80
2018-09-02T12:27:45.242Z,3.52
2018-09-02T12:30:13.858Z,4.28
2018-09-02T12:32:42.378Z,2.72
2018-09-02T12:35:10.927Z,2.85
2018-09-02T12:37:39.487Z,2.55
2018-09-02T12:40:08.097Z,4.50
2018-09-02T12:42:36.788Z,2.50
2018-09-02T12:45:05.510Z,5.72
2018-09-02T12:47:34.180Z,3.12
2018-09-02T12:50:03.652Z,3.77
2018-09-02T12:52:32.244Z,4.62
2018-09-02T12:55:00.852Z,3.12
2018-09-02T12:57:29.450Z,2.75
2018-09-02T12:59:57.992Z,2.77
2018-09-02T13:02:26.616Z,3.12
2018-09-02T13:04:55.251Z,2.22
2018-09-02T13:07:23.859Z,2.42
2018-09-02T13:09:52.455Z,3.45
2018-09-02T13:12:21.010Z,4.33
2018-09-02T13:14:49.585Z,4.00
2018-09-02T13:17:18.159Z,2.75
2018-09-02T13:19:46.728Z,2.72
2018-09-02T13:22:15.252Z,3.33
2018-09-02T13:24:43.869Z,3.67
2018-09-02T13:27:12.409Z,2.92
2018-09-02T13:29:41.083Z,2.37
2018-09-02T13:32:09.641Z,3.17
2018-09-02T13:34:38.161Z,2.95
2018-09-02T13:37:06.766Z,2.47
2018-09-02T13:39:35.349Z,2.20
2018-09-02T13:42:04.058Z,3.15
2018-09-02T13:44:32.254Z,2.50
2018-09-02T13:47:01.087Z,2.80
2018-09-02T13:49:32.560Z,3.08
2018-09-02T13:52:00.743Z,2.85
2018-09-02T13:54:29.409Z,3.90
2018-09-02T13:56:57.580Z,4.72
2018-09-02T13:59:26.113Z,5.45
2018-09-02T14:01:54.659Z,6.67
2018-09-02T14:04:23.165Z,10.53
2018-09-02T14:06:51.666Z,12.00
2018-09-02T14:09:20.194Z,14.07
2018-09-02T14:11:48.761Z,18.00
2018-09-02T14:14:17.447Z,22.60
2018-09-02T14:16:45.964Z,26.97
2018-09-02T14:19:14.541Z,30.57
2018-09-02T14:21:43.033Z,35.35
2018-09-02T14:24:11.882Z,38.42
2018-09-02T14:26:40.472Z,42.75
2018-09-02T14:29:08.990Z,45.43
2018-09-02T14:31:37.857Z,47.38
2018-09-02T14:34:06.328Z,48.25
2018-09-02T14:36:34.857Z,45.78
2018-09-02T14:39:05.412Z,46.00
2018-09-02T14:41:34.911Z,47.60
2018-09-02T14:44:06.025Z,48.68
2018-09-02T14:46:34.752Z,45.70
2018-09-02T14:49:03.381Z,46.90
2018-09-02T14:51:32.031Z,44.90
2018-09-02T14:54:00.619Z,47.08
2018-09-02T14:56:29.148Z,46.63
2018-09-02T14:58:57.643Z,44.83
2018-09-02T15:01:26.256Z,44.35
2018-09-02T15:03:54.817Z,45.75
2018-09-02T15:06:23.466Z,45.15
2018-09-02T15:08:52.049Z,45.33
2018-09-02T15:11:20.602Z,44.58
2018-09-02T15:13:49.125Z,45.10
2018-09-02T15:16:17.727Z,42.73
2018-09-02T15:18:46.328Z,44.40
2018-09-02T15:21:14.934Z,42.67
2018-09-02T15:23:43.401Z,43.98
2018-09-02T15:26:11.955Z,45.67
2018-09-02T15:28:40.502Z,48.08
2018-09-02T15:31:09.114Z,23.52
2018-09-02T15:33:37.710Z,8.45
2018-09-02T15:36:06.324Z,4.70
2018-09-02T15:38:35.991Z,2.30
2018-09-02T15:41:04.536Z,3.75
2018-09-02T15:43:33.177Z,3.60
2018-09-02T15:46:01.725Z,3.17
2018-09-02T15:48:30.282Z,5.28
2018-09-02T15:50:58.873Z,3.52
2018-09-02T15:53:27.458Z,2.52
2018-09-02T15:55:56.018Z,3.50
2018-09-02T15:58:24.571Z,2.85
2018-09-02T16:00:53.568Z,2.90
2018-09-02T16:03:22.140Z,2.60
2018-09-02T16:05:50.713Z,3.30
2018-09-02T16:08:19.245Z,4.33
2018-09-02T16:10:47.809Z,2.47
2018-09-02T16:13:16.347Z,2.75
2018-09-02T16:15:44.957Z,3.85
2018-09-02T16:18:13.476Z,3.77
2018-09-02T16:20:42.086Z,2.77
2018-09-02T16:23:10.652Z,4.60
2018-09-02T16:25:39.186Z,3.47
2018-09-02T16:28:07.741Z,3.10
2018-09-02T16:30:36.319Z,2.47
2018-09-02T16:33:04.998Z,3.22
2018-09-02T16:35:33.600Z,3.95
2018-09-02T16:38:02.141Z,3.17
2018-09-02T16:40:30.748Z,2.70
2018-09-02T16:42:59.279Z,2.50
2018-09-02T16:45:27.847Z,3.05
2018-09-02T16:47:56.431Z,2.65
2018-09-02T16:50:25.011Z,3.00
2018-09-02T16:52:54.449Z,3.52
2018-09-02T16:55:22.942Z,2.70
2018-09-02T16:57:54.562Z,4.80
2018-09-02T17:00:23.186Z,2.92
2018-09-02T17:02:51.784Z,2.60
2018-09-02T17:05:22.649Z,4.12
2018-09-02T17:07:52.133Z,2.58
2018-09-02T17:10:21.311Z,3.50
2018-09-02T17:12:50.272Z,2.67
2018-09-02T17:15:18.984Z,3.12
2018-09-02T17:17:47.639Z,2.92
2018-09-02T17:20:20.029Z,4.08
2018-09-02T17:22:48.586Z,3.75
2018-09-02T17:25:17.129Z,4.30
2018-09-02T17:27:45.702Z,3.77
2018-09-02T17:30:14.261Z,3.67
2018-09-02T17:32:42.849Z,3.70
2018-09-02T17:35:11.438Z,4.60
2018-09-02T17:37:39.995Z,4.08
2018-09-02T17:40:08.534Z,4.03
2018-09-02T17:42:37.100Z,3.40
2018-09-02T17:45:05.660Z,3.12
2018-09-02T17:47:34.180Z,3.17
2018-09-02T17:50:02.768Z,3.75
2018-09-02T17:52:31.284Z,3.70
2018-09-02T17:54:59.845Z,2.47
2018-09-02T17:57:28.467Z,2.62
2018-09-02T17:59:57.086Z,2.70
2018-09-02T18:02:25.671Z,3.35
2018-09-02T18:04:54.361Z,3.92
2018-09-02T18:07:23.096Z,2.90
2018-09-02T18:09:51.680Z,3.72
2018-09-02T18:12:20.185Z,3.75
2018-09-02T18:14:48.752Z,4.17
2018-09-02T18:17:17.452Z,4.78
2018-09-02T18:19:45.991Z,4.12
2018-09-02T18:22:14.605Z,3.27
2018-09-02T18:24:43.325Z,3.85
2018-09-02T18:27:12.571Z,3.17
2018-09-02T18:29:44.523Z,3.52
2018-09-02T18:32:13.117Z,3.67
2018-09-02T18:34:41.959Z,2.80
2018-09-02T18:37:10.512Z,2.60
2018-09-02T18:39:39.147Z,3.47
2018-09-02T18:42:07.635Z,3.65
2018-09-02T18:44:36.440Z,3.83
2018-09-02T18:47:05.442Z,3.08
2018-09-02T18:49:34.103Z,3.90
2018-09-02T18:52:02.811Z,4.12
2018-09-02T18:54:31.358Z,3.75
2018-09-02T18:57:00.193Z,4.62
2018-09-02T18:59:29.118Z,3.87
2018-09-02T19:01:58.052Z,3.60
2018-09-02T19:04:26.670Z,3.15
2018-09-02T19:06:55.526Z,4.62
2018-09-02T19:09:24.434Z,4.15
2018-09-02T19:11:53.044Z,3.55
2018-09-02T19:14:21.627Z,3.90
2018-09-02T19:16:50.471Z,4.53
2018-09-02T19:19:19.349Z,3.35
2018-09-02T19:21:47.982Z,4.60
2018-09-02T19:24:16.903Z,5.05
2018-09-02T19:26:45.585Z,3.55
2018-09-02T19:29:14.444Z,3.45
2018-09-02T19:31:43.329Z,3.25
2018-09-02T19:34:12.084Z,3.30
2018-09-02T19:36:40.885Z,3.30
2018-09-02T19:39:10.289Z,4.05
2018-09-02T19:41:39.213Z,3.62
2018-09-02T19:44:07.760Z,3.65
2018-09-02T19:46:36.440Z,4.65
2018-09-02T19:49:05.869Z,3.33
2018-09-02T19:51:34.433Z,2.98
2018-09-02T19:54:03.043Z,3.98
2018-09-02T19:56:31.588Z,5.33
2018-09-02T19:59:00.184Z,5.00
2018-09-02T20:01:28.698Z,3.50
2018-09-02T20:03:57.232Z,7.95
2018-09-02T20:06:25.765Z,4.22
2018-09-02T20:08:54.339Z,4.50
2018-09-02T20:11:22.934Z,2.77
2018-09-02T20:13:51.540Z,5.28
2018-09-02T20:16:20.113Z,4.47
2018-09-02T20:18:48.688Z,4.00
2018-09-02T20:21:17.300Z,5.15
2018-09-02T20:23:45.844Z,3.75
2018-09-02T20:26:14.437Z,3.25
2018-09-02T20:28:42.985Z,6.22
2018-09-02T20:31:11.594Z,5.58
2018-09-02T20:33:40.194Z,3.67
2018-09-02T20:36:08.775Z,5.22
2018-09-02T20:38:37.378Z,4.47
2018-09-02T20:41:05.927Z,4.05
2018-09-02T20:43:34.478Z,2.98
2018-09-02T20:46:03.059Z,5.10
2018-09-02T20:48:32.315Z,3.92
2018-09-02T20:51:00.920Z,7.37
2018-09-02T20:53:29.399Z,3.62
2018-09-02T20:55:57.932Z,4.40
2018-09-02T20:58:26.441Z,4.40
2018-09-02T21:00:54.982Z,4.12
2018-09-02T21:03:23.633Z,6.78
2018-09-02T21:05:52.197Z,5.70
2018-09-02T21:08:20.763Z,5.80
2018-09-02T21:10:49.269Z,5.30
2018-09-02T21:13:17.864Z,4.62
2018-09-02T21:15:46.494Z,5.05
2018-09-02T21:18:15.008Z,6.62
2018-09-02T21:20:43.541Z,5.42
2018-09-02T21:23:12.166Z,5.42
2018-09-02T21:25:40.691Z,4.87
2018-09-02T21:28:09.304Z,5.00
2018-09-02T21:30:37.878Z,7.03
2018-09-02T21:33:06.592Z,6.58
2018-09-02T21:35:35.100Z,5.47
2018-09-02T21:38:03.615Z,6.17
2018-09-02T21:40:32.195Z,5.37
2018-09-02T21:43:00.746Z,4.15
2018-09-02T21:45:29.364Z,6.22
2018-09-02T21:47:57.893Z,5.92
2018-09-02T21:50:26.581Z,7.95
2018-09-02T21:52:55.129Z,5.42
2018-09-02T21:55:23.704Z,5.25
2018-09-02T21:57:52.223Z,4.75
2018-09-02T22:00:20.811Z,5.45
2018-09-02T22:02:49.373Z,4.58
2018-09-02T22:05:18.040Z,7.60
2018-09-02T22:07:46.568Z,5.45
2018-09-02T22:10:15.136Z,5.30
2018-09-02T22:12:43.731Z,6.03
2018-09-02T22:15:12.234Z,4.65
2018-09-02T22:17:40.749Z,6.92
2018-09-02T22:20:11.869Z,6.72
2018-09-02T22:22:40.404Z,3.90
2018-09-02T22:25:09.964Z,5.80
2018-09-02T22:27:38.539Z,5.28
2018-09-02T22:30:08.178Z,3.77
2018-09-02T22:32:36.708Z,5.50
2018-09-02T22:35:05.342Z,5.30
2018-09-02T22:37:33.859Z,4.47
2018-09-02T22:40:02.381Z,5.05
2018-09-02T22:42:31.778Z,4.90
2018-09-02T22:45:00.345Z,6.12
2018-09-02T22:47:28.879Z,3.62
2018-09-02T22:49:57.418Z,5.42
2018-09-02T22:52:25.998Z,5.12
2018-09-02T22:54:54.583Z,5.72
2018-09-02T22:57:23.141Z,4.30
2018-09-02T22:59:51.650Z,4.83
2018-09-02T23:02:20.287Z,5.65
2018-09-02T23:04:48.869Z,4.22
2018-09-02T23:07:17.425Z,5.60
2018-09-02T23:09:45.984Z,6.25
2018-09-02T23:12:14.561Z,5.67
2018-09-02T23:14:43.152Z,4.62
2018-09-02T23:17:11.662Z,3.58
2018-09-02T23:19:40.163Z,3.47
2018-09-02T23:22:08.650Z,6.75
2018-09-02T23:24:37.263Z,7.67
2018-09-02T23:27:06.126Z,4.47
2018-09-02T23:29:34.687Z,4.15
2018-09-02T23:32:03.202Z,3.42
2018-09-02T23:34:31.809Z,4.78
2018-09-02T23:37:00.306Z,3.95
2018-09-02T23:39:28.842Z,3.52
2018-09-02T23:41:57.383Z,4.35
2018-09-02T23:44:25.898Z,3.77
2018-09-02T23:46:54.430Z,5.85
2018-09-02T23:49:23.008Z,4.90
2018-09-02T23:51:51.580Z,3.52
2018-09-02T23:54:20.165Z,3.37
2018-09-02T23:56:48.686Z,4.58
2018-09-02T23:59:17.309Z,4.60
